Time;durP1;ratioP1;P1;durP2;ratioP2;P2;SDS_P1;SDS_P2;PMS_P1;PMS_P2;Temp;Humidity;BMP_temperature;BMP_pressure;BME280_temperature;BME280_humidity;BME280_pressure;Samples;Min_cycle;Max_cycle;Signal;HPM_P1;HPM_P2
2021/10/23 00:00:05;;;;;;;14.77;12.67;;;8.30;99.90;;;;;;5053637;28;20346;-68
2021/10/23 00:02:31;;;;;;;21.33;13.50;;;8.20;99.90;;;;;;5051283;28;20179;-67
2021/10/23 00:04:56;;;;;;;28.17;16.87;;;8.10;99.90;;;;;;5051598;28;20262;-68
2021/10/23 00:07:22;;;;;;;14.97;13.23;;;8.10;99.90;;;;;;5060505;28;20670;-68
2021/10/23 00:09:48;;;;;;;21.13;14.47;;;8.10;99.90;;;;;;5071281;28;20181;-68
2021/10/23 00:12:13;;;;;;;16.83;14.20;;;8.10;99.90;;;;;;5063417;28;20287;-67
2021/10/23 00:14:39;;;;;;;19.50;14.07;;;8.00;99.90;;;;;;5051426;28;20174;-68
2021/10/23 00:17:04;;;;;;;14.67;13.20;;;8.10;99.90;;;;;;5056959;28;20217;-68
2021/10/23 00:19:30;;;;;;;11.77;10.60;;;8.10;99.90;;;;;;5071091;28;20170;-68
2021/10/23 00:21:56;;;;;;;14.83;11.53;;;8.20;99.90;;;;;;5067223;28;20194;-68
2021/10/23 00:24:22;;;;;;;13.23;11.93;;;8.20;99.90;;;;;;5051071;28;20175;-68
2021/10/23 00:26:48;;;;;;;12.97;11.40;;;8.20;99.90;;;;;;5053117;28;20181;-67
2021/10/23 00:29:13;;;;;;;12.47;11.17;;;8.30;99.90;;;;;;5071124;28;20193;-68
2021/10/23 00:31:39;;;;;;;12.77;11.47;;;8.30;99.90;;;;;;5051845;28;20618;-69
2021/10/23 00:34:04;;;;;;;15.10;11.60;;;8.30;99.90;;;;;;5051254;28;20262;-68
2021/10/23 00:36:30;;;;;;;17.17;12.63;;;8.30;99.90;;;;;;5067636;28;20268;-67
2021/10/23 00:38:56;;;;;;;18.57;13.03;;;8.40;99.90;;;;;;5064559;28;20210;-68
2021/10/23 00:41:21;;;;;;;15.30;12.50;;;8.40;99.90;;;;;;5050225;28;20194;-68
2021/10/23 00:43:47;;;;;;;14.17;12.67;;;8.40;99.90;;;;;;5055685;28;20654;-69
2021/10/23 00:46:15;;;;;;;14.30;12.10;;;8.50;99.90;;;;;;5075293;28;20254;-69
2021/10/23 00:48:41;;;;;;;15.70;14.10;;;8.50;99.90;;;;;;5071948;28;20972;-68
2021/10/23 00:51:09;;;;;;;18.07;12.83;;;8.50;99.90;;;;;;5054708;28;20195;-68
2021/10/23 00:53:35;;;;;;;20.83;12.73;;;8.50;99.90;;;;;;5055536;28;20179;-68
2021/10/23 00:56:01;;;;;;;16.23;12.80;;;8.60;99.90;;;;;;5073855;28;20231;-67
2021/10/23 00:58:27;;;;;;;14.40;12.87;;;8.60;99.90;;;;;;5067081;28;20202;-68
2021/10/23 01:00:53;;;;;;;16.57;13.70;;;8.60;99.90;;;;;;5054245;28;20195;-68
2021/10/23 01:03:18;;;;;;;17.17;13.47;;;8.70;99.90;;;;;;5058930;28;20714;-68
2021/10/23 01:05:44;;;;;;;17.93;13.50;;;8.70;99.90;;;;;;5075004;28;20174;-66
2021/10/23 01:08:09;;;;;;;16.00;13.57;;;8.70;99.90;;;;;;5060327;28;20282;-68
2021/10/23 01:10:35;;;;;;;17.20;13.47;;;8.80;99.90;;;;;;5054153;28;20773;-68
2021/10/23 01:13:01;;;;;;;14.30;11.77;;;8.80;99.90;;;;;;5066853;28;20185;-67
2021/10/23 01:15:29;;;;;;;17.80;13.30;;;8.80;99.90;;;;;;5073702;28;20174;-68
2021/10/23 01:17:56;;;;;;;18.83;12.87;;;8.80;99.90;;;;;;5063164;28;20233;-67
2021/10/23 01:20:24;;;;;;;15.83;13.17;;;8.80;99.90;;;;;;5054068;28;20198;-68
2021/10/23 01:22:51;;;;;;;19.07;13.60;;;8.90;99.90;;;;;;5064139;28;20182;-68
2021/10/23 01:25:18;;;;;;;17.77;13.80;;;8.90;99.90;;;;;;5073137;28;20174;-68
2021/10/23 01:27:44;;;;;;;18.70;12.77;;;8.90;99.90;;;;;;5058899;28;20277;-69
2021/10/23 01:30:12;;;;;;;20.17;14.40;;;9.00;99.90;;;;;;5053742;28;20200;-68
2021/10/23 01:32:39;;;;;;;19.37;15.17;;;9.00;99.90;;;;;;5067706;28;20181;-68
2021/10/23 01:35:05;;;;;;;15.40;12.87;;;8.90;99.90;;;;;;5074278;28;20182;-69
2021/10/23 01:37:35;;;;;;;17.60;13.30;;;9.00;99.90;;;;;;5061335;28;20195;-68
2021/10/23 01:40:02;;;;;;;20.53;14.40;;;8.90;99.90;;;;;;5052604;28;20194;-68
2021/10/23 01:42:27;;;;;;;14.13;12.63;;;8.90;99.90;;;;;;5065169;28;20178;-67
2021/10/23 01:44:53;;;;;;;17.77;13.57;;;8.90;99.90;;;;;;5074183;28;20544;-69
2021/10/23 01:47:21;;;;;;;17.33;14.03;;;8.90;99.90;;;;;;5064330;28;20656;-68
2021/10/23 01:49:47;;;;;;;16.63;13.10;;;8.90;99.90;;;;;;5053062;28;20198;-68
2021/10/23 01:52:13;;;;;;;17.10;13.90;;;8.90;99.90;;;;;;5061992;28;20206;-68
2021/10/23 01:54:38;;;;;;;15.83;13.53;;;8.90;99.90;;;;;;5071827;28;20586;-68
2021/10/23 01:57:04;;;;;;;16.00;13.43;;;8.90;99.90;;;;;;5073750;28;20201;-67
2021/10/23 01:59:30;;;;;;;16.30;14.03;;;8.90;99.90;;;;;;5068953;28;20234;-67
2021/10/23 02:01:55;;;;;;;20.90;15.23;;;8.90;99.90;;;;;;5072713;28;20194;-69
2021/10/23 02:04:21;;;;;;;15.10;13.07;;;8.90;99.90;;;;;;5070437;28;20213;-68
2021/10/23 02:06:46;;;;;;;17.47;14.07;;;8.90;99.90;;;;;;5056844;28;20575;-67
2021/10/23 02:09:12;;;;;;;19.17;14.77;;;8.90;99.90;;;;;;5071660;28;20263;-69
2021/10/23 02:11:37;;;;;;;18.70;14.53;;;8.90;99.90;;;;;;5052938;28;20213;-69
2021/10/23 02:14:03;;;;;;;22.67;14.50;;;8.80;99.90;;;;;;5063669;28;20253;-69
2021/10/23 02:16:29;;;;;;;19.30;14.80;;;8.80;99.90;;;;;;5072813;28;20223;-69
2021/10/23 02:18:55;;;;;;;18.60;13.93;;;8.80;99.90;;;;;;5064642;28;20595;-68
2021/10/23 02:21:20;;;;;;;19.03;14.03;;;8.80;99.90;;;;;;5053031;28;20198;-69
2021/10/23 02:23:46;;;;;;;19.40;13.90;;;8.70;99.90;;;;;;5059920;28;20671;-68
2021/10/23 02:26:11;;;;;;;21.03;14.50;;;8.70;99.90;;;;;;5071125;28;20170;-67
2021/10/23 02:28:38;;;;;;;20.47;14.40;;;8.70;99.90;;;;;;5067894;28;20195;-67
2021/10/23 02:31:03;;;;;;;16.90;13.37;;;8.60;99.90;;;;;;5052960;28;20199;-67
2021/10/23 02:33:29;;;;;;;18.10;14.23;;;8.60;99.90;;;;;;5056185;28;20643;-68
2021/10/23 02:35:55;;;;;;;21.30;13.87;;;8.50;99.90;;;;;;5073257;28;20171;-66
2021/10/23 02:38:21;;;;;;;18.20;14.90;;;8.60;99.90;;;;;;5061833;28;20217;-67
2021/10/23 02:40:46;;;;;;;19.53;15.67;;;8.50;99.90;;;;;;5052684;28;20194;-67
2021/10/23 02:43:12;;;;;;;19.30;14.77;;;8.50;99.90;;;;;;5054117;28;20657;-67
2021/10/23 02:45:37;;;;;;;21.73;17.57;;;8.50;99.90;;;;;;5052207;28;20194;-68
2021/10/23 02:48:03;;;;;;;18.00;15.27;;;8.40;99.90;;;;;;5061527;28;20555;-66
2021/10/23 02:50:29;;;;;;;24.60;16.77;;;8.40;99.90;;;;;;5072549;28;20236;-68
2021/10/23 02:52:55;;;;;;;25.90;16.20;;;8.40;99.90;;;;;;5063504;28;20183;-67
2021/10/23 02:55:21;;;;;;;22.50;17.07;;;8.30;99.90;;;;;;5052929;28;20541;-67
2021/10/23 02:57:46;;;;;;;21.63;16.30;;;8.30;99.90;;;;;;5058501;28;20297;-67
2021/10/23 03:00:12;;;;;;;22.57;16.70;;;8.30;99.90;;;;;;5071034;28;20257;-67
2021/10/23 03:02:38;;;;;;;21.53;15.80;;;8.30;99.90;;;;;;5051662;28;20182;-67
2021/10/23 03:05:06;;;;;;;18.93;15.87;;;8.40;99.90;;;;;;5052669;28;20171;-66
2021/10/23 03:07:32;;;;;;;20.73;16.07;;;8.40;99.90;;;;;;5059066;28;20178;-67
2021/10/23 03:09:58;;;;;;;22.17;15.70;;;8.40;99.90;;;;;;5072377;28;20433;-68
2021/10/23 03:12:24;;;;;;;19.47;15.87;;;8.50;99.90;;;;;;5053862;28;20233;-67
2021/10/23 03:14:49;;;;;;;24.87;16.47;;;8.50;99.90;;;;;;5058941;28;20196;-68
2021/10/23 03:17:15;;;;;;;25.63;16.27;;;8.60;99.90;;;;;;5072318;28;20198;-67
2021/10/23 03:19:41;;;;;;;23.73;15.53;;;8.60;99.90;;;;;;5064972;28;20213;-67
2021/10/23 03:22:07;;;;;;;24.23;15.50;;;8.60;99.90;;;;;;5052201;28;20214;-67
2021/10/23 03:24:32;;;;;;;21.10;15.47;;;8.70;99.90;;;;;;5056545;28;20173;-65
2021/10/23 03:26:58;;;;;;;22.73;16.00;;;8.70;99.90;;;;;;5071938;28;20232;-67
2021/10/23 03:29:23;;;;;;;25.60;16.57;;;8.80;99.90;;;;;;5069336;28;20179;-67
2021/10/23 03:31:49;;;;;;;25.37;18.60;;;8.80;99.90;;;;;;5063191;28;20203;-68
2021/10/23 03:34:15;;;;;;;25.03;16.30;;;8.90;99.90;;;;;;5071982;28;20202;-67
2021/10/23 03:36:40;;;;;;;22.80;16.30;;;8.90;99.90;;;;;;5071723;28;20541;-66
2021/10/23 03:39:06;;;;;;;21.57;16.87;;;8.90;99.90;;;;;;5050933;28;20245;-68
2021/10/23 03:41:33;;;;;;;26.67;17.00;;;8.90;99.90;;;;;;5051607;28;20222;-67
2021/10/23 03:43:58;;;;;;;23.73;17.43;;;8.90;99.90;;;;;;5063985;28;20178;-68
2021/10/23 03:46:24;;;;;;;21.90;15.97;;;8.90;99.90;;;;;;5051870;28;20694;-67
2021/10/23 03:48:50;;;;;;;23.30;16.53;;;8.90;99.90;;;;;;5051689;28;20178;-66
2021/10/23 03:51:15;;;;;;;21.30;16.63;;;8.90;99.90;;;;;;5066076;28;20209;-67
2021/10/23 03:53:41;;;;;;;23.90;16.70;;;8.90;99.90;;;;;;5071537;28;20181;-66
2021/10/23 03:56:07;;;;;;;24.50;16.50;;;9.00;99.90;;;;;;5057482;28;20680;-68
2021/10/23 03:58:32;;;;;;;24.87;16.77;;;9.00;99.90;;;;;;5068064;28;20205;-67
2021/10/23 04:00:58;;;;;;;23.47;15.57;;;9.00;99.90;;;;;;5058673;28;20202;-67
2021/10/23 04:03:24;;;;;;;23.53;16.00;;;9.00;99.90;;;;;;5050947;28;20167;-66
2021/10/23 04:05:50;;;;;;;22.60;16.03;;;9.10;99.90;;;;;;5061172;28;20631;-66
2021/10/23 04:08:15;;;;;;;21.47;15.67;;;9.10;99.90;;;;;;5071546;28;20548;-67
2021/10/23 04:10:41;;;;;;;25.03;16.73;;;9.10;99.90;;;;;;5087937;22;20289;-66
2021/10/23 04:13:06;;;;;;;25.47;16.93;;;9.10;99.90;;;;;;5066196;28;20194;-66
2021/10/23 04:15:33;;;;;;;24.33;16.73;;;9.10;99.90;;;;;;5051418;28;20538;-66
2021/10/23 04:17:59;;;;;;;22.27;17.37;;;9.10;99.90;;;;;;5053852;28;20209;-66
2021/10/23 04:20:25;;;;;;;24.33;16.83;;;9.10;99.90;;;;;;5069718;28;20223;-66
2021/10/23 04:22:51;;;;;;;23.27;16.77;;;9.10;99.90;;;;;;5069960;28;20190;-66
2021/10/23 04:25:18;;;;;;;27.27;16.83;;;9.10;99.90;;;;;;5051393;28;20566;-66
2021/10/23 04:27:43;;;;;;;22.53;15.37;;;9.10;99.90;;;;;;5051212;28;20167;-66
2021/10/23 04:30:09;;;;;;;22.33;16.30;;;9.10;99.90;;;;;;5063551;28;20186;-66
2021/10/23 04:32:36;;;;;;;22.17;15.47;;;9.10;99.90;;;;;;5051081;28;20564;-66
2021/10/23 04:35:03;;;;;;;21.90;16.30;;;9.10;99.90;;;;;;5069290;28;20742;-66
2021/10/23 04:37:28;;;;;;;22.87;14.90;;;9.10;99.90;;;;;;5061887;28;20195;-65
2021/10/23 04:39:54;;;;;;;25.47;17.23;;;9.10;99.90;;;;;;5049043;28;20178;-66
2021/10/23 04:42:20;;;;;;;23.53;15.13;;;9.10;99.90;;;;;;5058228;28;20241;-66
2021/10/23 04:44:45;;;;;;;21.90;16.73;;;9.10;99.90;;;;;;5069277;28;20654;-66
2021/10/23 04:47:11;;;;;;;23.63;16.33;;;9.00;99.90;;;;;;5050117;28;20163;-66
2021/10/23 04:49:36;;;;;;;21.50;15.90;;;8.90;99.90;;;;;;5049981;28;20181;-65
2021/10/23 04:52:02;;;;;;;25.10;16.17;;;8.90;99.90;;;;;;5071207;28;20487;-66
2021/10/23 04:54:28;;;;;;;24.13;16.57;;;8.80;99.90;;;;;;5071026;28;20196;-66
2021/10/23 04:56:53;;;;;;;23.87;16.67;;;8.80;99.90;;;;;;5052649;28;20175;-66
2021/10/23 04:59:19;;;;;;;23.47;16.60;;;8.60;99.90;;;;;;5050716;28;20606;-65
2021/10/23 05:01:44;;;;;;;25.33;16.83;;;8.50;99.90;;;;;;5065898;28;20237;-65
2021/10/23 05:04:10;;;;;;;18.67;15.63;;;8.50;99.90;;;;;;5071040;28;20162;-66
2021/10/23 05:06:35;;;;;;;30.87;18.43;;;8.30;99.90;;;;;;5054439;28;20179;-65
2021/10/23 05:09:01;;;;;;;24.50;16.70;;;8.30;99.90;;;;;;5054003;28;20601;-66
2021/10/23 05:11:27;;;;;;;19.50;15.67;;;8.20;99.90;;;;;;5063092;28;20218;-65
2021/10/23 05:13:54;;;;;;;22.97;15.47;;;8.20;99.90;;;;;;5052771;28;20198;-66
2021/10/23 05:16:19;;;;;;;22.10;16.80;;;8.10;99.90;;;;;;5070593;28;20205;-66
2021/10/23 05:18:48;;;;;;;24.30;16.43;;;8.10;99.90;;;;;;5069913;28;20242;-66
2021/10/23 05:21:16;;;;;;;28.13;17.47;;;8.00;99.90;;;;;;5050531;28;20191;-66
2021/10/23 05:23:42;;;;;;;26.20;17.00;;;8.00;99.90;;;;;;5050741;28;20193;-65
2021/10/23 05:26:07;;;;;;;27.80;17.47;;;8.00;99.90;;;;;;5069050;28;20698;-65
2021/10/23 05:28:33;;;;;;;25.33;18.17;;;7.90;99.90;;;;;;5070761;28;20631;-66
2021/10/23 05:30:59;;;;;;;25.80;16.50;;;7.80;99.90;;;;;;5065544;28;20289;-66
2021/10/23 05:33:25;;;;;;;29.07;17.57;;;7.80;99.90;;;;;;5073347;28;20265;-66
2021/10/23 05:35:50;;;;;;;25.13;16.10;;;7.70;99.90;;;;;;5072473;28;20649;-66
2021/10/23 05:38:16;;;;;;;28.37;18.53;;;7.70;99.90;;;;;;5066431;28;20217;-65
2021/10/23 05:40:41;;;;;;;27.23;16.17;;;7.70;99.90;;;;;;5070346;28;20178;-66
2021/10/23 05:43:07;;;;;;;28.83;18.83;;;7.70;99.90;;;;;;5070430;28;20186;-66
2021/10/23 05:45:33;;;;;;;30.77;19.43;;;7.70;99.90;;;;;;5054230;28;20226;-65
2021/10/23 05:47:58;;;;;;;36.47;19.77;;;7.70;99.90;;;;;;5053625;28;20664;-66
2021/10/23 05:50:24;;;;;;;25.50;19.50;;;7.70;99.90;;;;;;5073873;28;20174;-66
2021/10/23 05:52:50;;;;;;;28.43;18.97;;;7.70;99.90;;;;;;5073786;28;20866;-65
2021/10/23 05:55:15;;;;;;;25.47;16.53;;;7.70;99.90;;;;;;5056118;28;20201;-65
2021/10/23 05:57:41;;;;;;;23.33;17.37;;;7.80;99.90;;;;;;5072611;28;20232;-66
2021/10/23 06:00:09;;;;;;;26.13;17.87;;;7.70;99.90;;;;;;5073156;28;20571;-65
2021/10/23 06:02:37;;;;;;;29.53;18.93;;;7.80;99.90;;;;;;5073370;28;20209;-66
2021/10/23 06:05:03;;;;;;;30.03;18.47;;;7.80;99.90;;;;;;5072560;28;20256;-65
2021/10/23 06:07:37;;;;;;;35.63;19.70;;;7.80;99.90;;;;;;5073448;28;20550;-65
2021/10/23 06:10:04;;;;;;;31.60;20.53;;;7.80;99.90;;;;;;5056349;28;20197;-66
2021/10/23 06:12:31;;;;;;;27.80;20.07;;;7.80;99.90;;;;;;5053365;28;20222;-66
2021/10/23 06:14:57;;;;;;;34.20;19.97;;;7.80;99.90;;;;;;5069025;28;20226;-66
2021/10/23 06:17:23;;;;;;;29.27;18.73;;;7.90;99.90;;;;;;5068606;28;20206;-65
2021/10/23 06:19:48;;;;;;;29.00;18.37;;;7.80;99.90;;;;;;5053100;28;20186;-65
2021/10/23 06:22:15;;;;;;;32.60;19.40;;;7.80;99.90;;;;;;5055947;28;20190;-65
2021/10/23 06:24:40;;;;;;;29.20;19.43;;;7.80;99.90;;;;;;5073504;28;20234;-65
2021/10/23 06:27:06;;;;;;;32.30;20.20;;;7.80;99.90;;;;;;5070656;28;20174;-66
2021/10/23 06:29:32;;;;;;;32.33;20.40;;;7.90;99.90;;;;;;5053019;28;20207;-65
2021/10/23 06:31:58;;;;;;;43.57;26.73;;;8.00;99.90;;;;;;5053226;28;20210;-65
2021/10/23 06:34:24;;;;;;;43.37;26.40;;;8.00;99.90;;;;;;5053227;28;20264;-65
2021/10/23 06:36:49;;;;;;;28.60;21.20;;;8.10;99.90;;;;;;5062893;28;20213;-64
2021/10/23 06:39:15;;;;;;;32.07;21.70;;;8.20;99.90;;;;;;5072792;28;20217;-66
2021/10/23 06:41:41;;;;;;;27.00;19.53;;;8.30;99.90;;;;;;5063339;28;20187;-66
2021/10/23 06:44:07;;;;;;;29.30;21.13;;;8.40;99.90;;;;;;5053054;28;20179;-66
2021/10/23 06:46:37;;;;;;;34.87;22.63;;;8.40;99.90;;;;;;5052759;28;20177;-65
2021/10/23 06:49:08;;;;;;;35.30;21.90;;;8.50;99.90;;;;;;5052672;28;20190;-66
2021/10/23 06:51:34;;;;;;;32.17;19.77;;;8.60;99.90;;;;;;5058559;28;20679;-65
2021/10/23 06:54:00;;;;;;;32.87;22.53;;;8.70;99.90;;;;;;5072722;28;20186;-66
2021/10/23 06:56:27;;;;;;;30.03;20.90;;;8.80;99.90;;;;;;5067986;28;20193;-66
2021/10/23 06:58:54;;;;;;;29.33;19.90;;;8.80;99.90;;;;;;5052656;28;20260;-65
2021/10/23 07:01:20;;;;;;;30.57;19.77;;;8.90;99.90;;;;;;5066275;28;20194;-66
2021/10/23 07:03:46;;;;;;;27.30;18.13;;;8.90;99.90;;;;;;5072681;28;20182;-66
2021/10/23 07:06:12;;;;;;;28.37;19.10;;;8.90;99.90;;;;;;5060085;28;20749;-66
2021/10/23 07:08:37;;;;;;;30.53;18.77;;;8.90;99.90;;;;;;5056477;28;20209;-65
2021/10/23 07:11:03;;;;;;;29.70;19.43;;;8.90;99.90;;;;;;5066569;28;20213;-66
2021/10/23 07:13:28;;;;;;;33.37;18.13;;;9.00;99.90;;;;;;5072292;28;20688;-65
2021/10/23 07:15:54;;;;;;;28.30;18.07;;;9.10;99.90;;;;;;5068866;28;20201;-66
2021/10/23 07:18:20;;;;;;;29.53;19.67;;;9.20;99.90;;;;;;5072105;28;20212;-65
2021/10/23 07:20:46;;;;;;;31.13;20.40;;;9.30;99.90;;;;;;5069958;28;20549;-66
2021/10/23 07:23:12;;;;;;;29.07;18.83;;;9.40;99.90;;;;;;5052500;28;20171;-66
2021/10/23 07:25:38;;;;;;;25.87;17.90;;;9.50;99.90;;;;;;5055634;28;20183;-66
2021/10/23 07:28:03;;;;;;;27.20;19.03;;;9.50;99.90;;;;;;5052195;28;20193;-66
2021/10/23 07:30:29;;;;;;;31.87;20.03;;;9.60;99.90;;;;;;5060222;28;20635;-64
2021/10/23 07:32:55;;;;;;;28.17;20.83;;;9.60;99.90;;;;;;5059268;28;20203;-66
2021/10/23 07:35:21;;;;;;;29.97;19.93;;;9.70;99.90;;;;;;5053123;28;20178;-65
2021/10/23 07:37:47;;;;;;;28.80;19.67;;;9.80;99.90;;;;;;5051800;28;20203;-65
2021/10/23 07:40:14;;;;;;;35.53;19.63;;;9.90;99.90;;;;;;5056617;28;20612;-66
2021/10/23 07:42:40;;;;;;;36.23;19.77;;;9.90;99.90;;;;;;5071669;28;20201;-66
2021/10/23 07:45:08;;;;;;;30.17;19.97;;;10.00;99.90;;;;;;5070194;28;20257;-66
2021/10/23 07:47:38;;;;;;;26.90;19.53;;;10.10;99.90;;;;;;5067831;28;20243;-66
2021/10/23 07:50:05;;;;;;;31.50;19.23;;;10.20;99.90;;;;;;5069253;28;20237;-64
2021/10/23 07:52:31;;;;;;;29.63;18.10;;;10.20;99.90;;;;;;5059980;28;20195;-66
2021/10/23 07:54:57;;;;;;;26.83;17.93;;;10.20;99.90;;;;;;5071339;28;20170;-66
2021/10/23 07:57:22;;;;;;;25.23;17.20;;;10.30;99.90;;;;;;5070702;28;20202;-66
2021/10/23 07:59:48;;;;;;;22.67;17.33;;;10.40;99.90;;;;;;5051026;28;20213;-66
2021/10/23 08:02:13;;;;;;;19.90;15.20;;;10.50;99.90;;;;;;5051385;28;20245;-66
2021/10/23 08:04:39;;;;;;;16.30;14.63;;;10.60;99.90;;;;;;5065941;28;20189;-66
2021/10/23 08:07:05;;;;;;;21.50;15.97;;;10.70;99.90;;;;;;5060082;28;20179;-66
2021/10/23 08:09:33;;;;;;;20.10;14.00;;;10.80;99.90;;;;;;5051214;28;20650;-66
2021/10/23 08:11:59;;;;;;;18.70;14.70;;;10.90;99.90;;;;;;5065497;28;20239;-66
2021/10/23 08:14:25;;;;;;;16.07;13.13;;;11.00;99.90;;;;;;5070995;28;20170;-66
2021/10/23 08:16:51;;;;;;;20.47;14.63;;;11.00;99.90;;;;;;5071315;28;20253;-66
2021/10/23 08:19:18;;;;;;;15.10;13.50;;;11.10;99.90;;;;;;5070966;28;20280;-66
2021/10/23 08:21:43;;;;;;;17.63;14.07;;;11.20;99.90;;;;;;5070946;28;20186;-65
2021/10/23 08:24:10;;;;;;;21.40;13.40;;;11.30;99.90;;;;;;5070731;28;20625;-66
2021/10/23 08:26:36;;;;;;;13.13;11.63;;;11.40;99.90;;;;;;5071433;28;20257;-66
2021/10/23 08:29:02;;;;;;;15.87;12.27;;;11.70;99.90;;;;;;5070764;28;20258;-66
2021/10/23 08:31:27;;;;;;;11.90;10.80;;;12.20;99.90;;;;;;5070818;28;20691;-66
2021/10/23 08:33:56;;;;;;;12.10;10.93;;;12.50;99.90;;;;;;5071147;28;20182;-66
2021/10/23 08:36:23;;;;;;;11.33;10.33;;;12.90;99.90;;;;;;5070435;28;20611;-66
2021/10/23 08:38:49;;;;;;;11.03;9.97;;;13.40;99.90;;;;;;5071166;28;20686;-66
2021/10/23 08:41:16;;;;;;;10.80;9.30;;;13.50;99.90;;;;;;5070770;28;20553;-66
2021/10/23 08:43:42;;;;;;;10.20;9.30;;;13.70;99.90;;;;;;5070953;28;20178;-65
2021/10/23 08:46:12;;;;;;;11.13;9.97;;;13.80;99.90;;;;;;5071070;28;20197;-65
2021/10/23 08:48:38;;;;;;;10.77;9.87;;;13.50;99.90;;;;;;5070957;28;20186;-66
2021/10/23 08:51:04;;;;;;;12.10;10.10;;;13.40;99.90;;;;;;5070357;28;20198;-66
2021/10/23 08:53:32;;;;;;;11.57;9.50;;;13.30;99.90;;;;;;5070986;28;20548;-65
2021/10/23 08:55:58;;;;;;;11.40;10.30;;;13.10;99.90;;;;;;5070708;28;20174;-66
2021/10/23 08:58:24;;;;;;;13.03;10.17;;;13.00;99.90;;;;;;5070656;28;20213;-65
2021/10/23 09:00:50;;;;;;;11.43;10.27;;;12.80;99.90;;;;;;5070684;28;20639;-66
2021/10/23 09:03:17;;;;;;;13.00;10.20;;;12.90;99.90;;;;;;5069450;28;20558;-65
2021/10/23 09:05:42;;;;;;;11.57;10.43;;;12.90;99.90;;;;;;5061553;28;20197;-66
2021/10/23 09:08:16;;;;;;;10.67;9.67;;;13.00;99.90;;;;;;5073288;28;20170;-65
2021/10/23 09:10:47;;;;;;;11.47;10.27;;;12.80;99.90;;;;;;5067432;28;20644;-66
2021/10/23 09:13:24;;;;;;;11.93;10.87;;;12.70;99.90;;;;;;5054672;28;20178;-66
2021/10/23 09:15:50;;;;;;;12.17;10.83;;;13.00;99.90;;;;;;5055189;28;20655;-65
2021/10/23 09:18:15;;;;;;;12.67;11.40;;;13.20;99.90;;;;;;5057342;28;20284;-66
2021/10/23 09:20:43;;;;;;;12.37;11.27;;;13.10;99.90;;;;;;5054087;28;20641;-65
2021/10/23 09:23:19;;;;;;;12.57;11.40;;;13.10;99.90;;;;;;5054659;28;20170;-66
2021/10/23 09:25:51;;;;;;;11.40;10.33;;;13.00;99.90;;;;;;5065036;28;20197;-66
2021/10/23 09:28:31;;;;;;;11.13;10.23;;;13.10;99.90;;;;;;5054521;28;20239;-65
2021/10/23 09:30:57;;;;;;;11.97;10.77;;;13.30;99.90;;;;;;5061679;28;20205;-65
2021/10/23 09:33:32;;;;;;;11.43;9.57;;;13.30;99.90;;;;;;5072762;28;20667;-66
2021/10/23 09:36:03;;;;;;;11.63;10.53;;;13.40;99.90;;;;;;5074129;28;20242;-66
2021/10/23 09:38:31;;;;;;;11.23;10.10;;;13.40;99.90;;;;;;5073899;28;20241;-66
2021/10/23 09:41:12;;;;;;;10.70;9.70;;;13.60;99.90;;;;;;5060025;28;20209;-66
2021/10/23 09:43:38;;;;;;;11.00;10.00;;;13.60;99.90;;;;;;5053957;28;20185;-66
2021/10/23 09:46:08;;;;;;;10.17;9.27;;;13.40;99.90;;;;;;5067275;28;20260;-65
2021/10/23 09:48:47;;;;;;;10.07;9.37;;;13.30;99.90;;;;;;5066191;28;20175;-65
2021/10/23 09:51:24;;;;;;;9.73;8.73;;;13.50;99.90;;;;;;5067899;28;20202;-65
2021/10/23 09:53:55;;;;;;;9.90;9.17;;;13.60;99.90;;;;;;5060556;28;20324;-66
2021/10/23 09:56:24;;;;;;;9.17;8.27;;;13.70;99.90;;;;;;5053245;28;20261;-66
2021/10/23 09:58:58;;;;;;;9.33;8.53;;;14.00;99.90;;;;;;5065748;28;20268;-65
2021/10/23 10:01:29;;;;;;;9.77;8.87;;;14.30;99.90;;;;;;5073262;28;20320;-66
2021/10/23 10:04:06;;;;;;;8.97;8.27;;;14.40;99.90;;;;;;5061110;28;20205;-66
2021/10/23 10:06:32;;;;;;;9.60;8.23;;;14.40;99.90;;;;;;5053244;28;20166;-65
2021/10/23 10:08:58;;;;;;;9.10;8.20;;;14.40;99.90;;;;;;5056861;28;20178;-66
2021/10/23 10:11:24;;;;;;;9.27;8.47;;;14.30;99.90;;;;;;5073635;28;20217;-65
2021/10/23 10:13:51;;;;;;;10.03;9.13;;;14.30;99.90;;;;;;5062634;28;20182;-66
2021/10/23 10:16:16;;;;;;;9.27;8.47;;;14.30;99.90;;;;;;5052945;28;20191;-65
2021/10/23 10:18:45;;;;;;;7.90;7.30;;;14.40;99.90;;;;;;5061529;28;20222;-66
2021/10/23 10:21:12;;;;;;;9.67;8.67;;;14.50;99.90;;;;;;5067467;28;20718;-65
2021/10/23 10:23:42;;;;;;;9.30;8.40;;;14.80;99.90;;;;;;5053068;28;20175;-65
2021/10/23 10:26:14;;;;;;;8.60;7.80;;;14.70;99.90;;;;;;5057342;28;20239;-66
2021/10/23 10:29:12;;;;;;;9.90;8.60;;;14.70;99.90;;;;;;5072194;28;20251;-65
2021/10/23 10:31:53;;;;;;;8.83;8.03;;;14.60;99.90;;;;;;5064963;28;20203;-65
2021/10/23 10:34:41;;;;;;;9.50;8.70;;;14.60;99.90;;;;;;5053089;28;20174;-65
2021/10/23 10:42:52;;;;;;;9.13;8.23;;;14.80;99.90;;;;;;5057889;28;20210;-65
2021/10/23 10:45:38;;;;;;;8.17;7.57;;;14.80;99.90;;;;;;5057731;28;20220;-65
2021/10/23 10:48:23;;;;;;;8.87;8.17;;;14.70;99.90;;;;;;5069648;28;20193;-65
2021/10/23 10:50:50;;;;;;;8.17;7.07;;;14.70;99.90;;;;;;5052455;28;20543;-65
2021/10/23 10:53:28;;;;;;;8.40;7.70;;;14.70;99.90;;;;;;5056726;28;20178;-65
2021/10/23 10:55:55;;;;;;;8.43;6.60;;;14.70;99.90;;;;;;5072636;28;20213;-65
2021/10/23 10:58:47;;;;;;;7.60;7.00;;;14.90;99.90;;;;;;5068227;28;20203;-65
2021/10/23 11:01:33;;;;;;;7.20;6.63;;;15.00;99.90;;;;;;5052285;28;20655;-66
2021/10/23 11:03:58;;;;;;;8.03;7.30;;;14.90;99.90;;;;;;5060762;28;20177;-65
2021/10/23 11:06:45;;;;;;;7.70;7.00;;;14.90;99.90;;;;;;5072556;28;20177;-66
2021/10/23 11:09:14;;;;;;;9.60;8.60;;;15.00;99.90;;;;;;5061376;28;20224;-66
2021/10/23 11:11:49;;;;;;;7.83;7.07;;;15.10;99.90;;;;;;5052113;28;20206;-65
2021/10/23 11:14:36;;;;;;;8.00;7.13;;;15.10;99.90;;;;;;5061447;28;20181;-65
2021/10/23 11:17:02;;;;;;;7.70;7.00;;;15.00;99.90;;;;;;5063550;28;20194;-65
2021/10/23 11:19:33;;;;;;;7.97;6.73;;;15.00;99.90;;;;;;5051292;28;20317;-66
2021/10/23 11:22:00;;;;;;;8.13;7.43;;;15.10;99.90;;;;;;5059038;28;20198;-66
2021/10/23 11:24:27;;;;;;;8.43;7.70;;;15.20;99.90;;;;;;5071220;28;20178;-66
2021/10/23 11:26:54;;;;;;;7.90;6.60;;;15.10;99.90;;;;;;5065872;28;20673;-65
2021/10/23 11:29:25;;;;;;;8.70;6.93;;;15.00;99.90;;;;;;5070839;28;20204;-66
2021/10/23 11:31:52;;;;;;;8.30;7.60;;;14.90;99.90;;;;;;5066853;28;20198;-65
2021/10/23 11:34:31;;;;;;;8.47;7.70;;;15.00;99.90;;;;;;5051649;28;20580;-66
2021/10/23 11:37:10;;;;;;;9.77;7.80;;;15.00;99.90;;;;;;5056922;28;20185;-65
2021/10/23 11:40:03;;;;;;;9.47;8.63;;;14.80;99.90;;;;;;5071210;28;20189;-66
2021/10/23 11:42:33;;;;;;;8.40;7.60;;;14.70;99.90;;;;;;5061948;28;20553;-65
2021/10/23 11:45:27;;;;;;;9.10;8.37;;;14.40;99.90;;;;;;5057608;28;20227;-66
2021/10/23 11:47:58;;;;;;;7.87;7.23;;;14.30;99.90;;;;;;5070499;28;20673;-65
2021/10/23 11:50:29;;;;;;;8.73;8.03;;;14.30;99.90;;;;;;5061686;28;20212;-65
2021/10/23 11:53:17;;;;;;;8.00;7.40;;;14.40;99.90;;;;;;5051634;28;20281;-65
2021/10/23 11:56:05;;;;;;;8.90;8.00;;;14.40;99.90;;;;;;5061744;28;20186;-65
2021/10/23 11:58:35;;;;;;;8.40;7.70;;;14.40;99.90;;;;;;5066207;28;20214;-66
2021/10/23 12:01:07;;;;;;;7.60;7.00;;;14.50;99.90;;;;;;5051434;28;20187;-65
2021/10/23 12:03:43;;;;;;;8.60;7.90;;;14.60;99.90;;;;;;5052293;28;20215;-66
2021/10/23 12:06:15;;;;;;;11.30;9.07;;;14.60;99.90;;;;;;5061300;28;20580;-65
2021/10/23 12:08:41;;;;;;;8.90;7.97;;;14.60;99.90;;;;;;5051127;28;20257;-66
2021/10/23 12:11:24;;;;;;;9.37;8.40;;;14.50;99.90;;;;;;5052767;28;20304;-65
2021/10/23 12:13:54;;;;;;;8.40;7.60;;;14.50;99.90;;;;;;5071571;28;20169;-65
2021/10/23 12:16:30;;;;;;;7.87;7.13;;;14.60;99.90;;;;;;5066476;28;20686;-65
2021/10/23 12:19:02;;;;;;;11.10;8.83;;;14.50;99.90;;;;;;5048095;28;20767;-65
2021/10/23 12:21:38;;;;;;;8.10;7.50;;;14.30;99.90;;;;;;5055761;28;20547;-66
2021/10/23 12:24:23;;;;;;;7.70;7.00;;;14.20;99.90;;;;;;5071385;28;20635;-65
2021/10/23 12:27:09;;;;;;;8.10;7.30;;;14.10;99.90;;;;;;5069673;28;20165;-65
2021/10/23 12:29:56;;;;;;;8.17;7.23;;;14.10;99.90;;;;;;5070330;28;20185;-66
2021/10/23 12:32:33;;;;;;;6.90;6.30;;;14.20;99.90;;;;;;5059892;28;20701;-65
2021/10/23 12:35:04;;;;;;;7.37;6.73;;;14.40;99.90;;;;;;5051236;28;20178;-65
2021/10/23 12:37:32;;;;;;;8.87;7.80;;;14.50;99.90;;;;;;5062322;28;20644;-64
2021/10/23 12:40:11;;;;;;;6.87;6.37;;;14.50;99.90;;;;;;5073004;28;20627;-66
2021/10/23 12:42:38;;;;;;;7.30;6.90;;;14.60;99.90;;;;;;5063175;28;20201;-64
2021/10/23 12:45:05;;;;;;;7.30;6.80;;;14.60;99.90;;;;;;5060447;28;20691;-66
2021/10/23 12:47:31;;;;;;;8.20;6.90;;;14.60;99.90;;;;;;5053985;28;20181;-65